Time;durP1;ratioP1;P1;durP2;ratioP2;P2;SDS_P1;SDS_P2;PMS_P1;PMS_P2;Temp;Humidity;BMP_temperature;BMP_pressure;BME280_temperature;BME280_humidity;BME280_pressure;Samples;Min_cycle;Max_cycle;Signal;HPM_P1;HPM_P2
2021/05/27 00:00:24;;;;;;;1.00;0.77;;;;;;;;;;5072156;28;20469;-67
2021/05/27 00:02:50;;;;;;;1.48;0.70;;;;;;;;;;5071927;28;20051;-67
2021/05/27 00:05:17;;;;;;;0.80;0.57;;;;;;;;;;5072240;28;20064;-68
2021/05/27 00:07:43;;;;;;;1.80;1.10;;;;;;;;;;5071582;28;20060;-67
2021/05/27 00:10:11;;;;;;;2.83;1.00;;;;;;;;;;5076224;28;20052;-67
2021/05/27 00:12:37;;;;;;;1.45;0.70;;;;;;;;;;5076126;28;20388;-67
2021/05/27 00:15:05;;;;;;;1.42;0.70;;;;;;;;;;5075900;28;20083;-67
2021/05/27 00:17:32;;;;;;;1.23;0.90;;;;;;;;;;5075827;28;20048;-67
2021/05/27 00:19:58;;;;;;;1.58;0.90;;;;;;;;;;5075809;28;20082;-67
2021/05/27 00:22:25;;;;;;;2.08;0.90;;;;;;;;;;5075445;28;20056;-67
2021/05/27 00:24:51;;;;;;;2.72;1.02;;;;;;;;;;5076156;28;20542;-67
2021/05/27 00:27:17;;;;;;;1.70;1.08;;;;;;;;;;5076015;28;20449;-67
2021/05/27 00:29:43;;;;;;;2.33;1.00;;;;;;;;;;5076061;28;20139;-67
2021/05/27 00:32:09;;;;;;;3.22;1.10;;;;;;;;;;5075726;28;20044;-68
2021/05/27 00:34:36;;;;;;;4.03;0.98;;;;;;;;;;5075658;28;20051;-68
2021/05/27 00:37:02;;;;;;;2.78;0.95;;;;;;;;;;5075194;28;20044;-68
2021/05/27 00:39:28;;;;;;;4.28;1.17;;;;;;;;;;5074791;28;20060;-68
2021/05/27 00:41:57;;;;;;;3.67;1.00;;;;;;;;;;5075577;28;20051;-68
2021/05/27 00:44:25;;;;;;;1.83;0.95;;;;;;;;;;5075376;28;20053;-68
2021/05/27 00:46:52;;;;;;;3.05;1.40;;;;;;;;;;5075629;28;20432;-68
2021/05/27 00:49:18;;;;;;;3.42;1.40;;;;;;;;;;5072772;28;20049;-68
2021/05/27 00:51:46;;;;;;;4.82;2.00;;;;;;;;;;5061464;28;20075;-68
2021/05/27 00:54:13;;;;;;;2.35;1.20;;;;;;;;;;5072335;28;20048;-68
2021/05/27 00:56:40;;;;;;;2.40;1.25;;;;;;;;;;5074932;28;20044;-68
2021/05/27 00:59:06;;;;;;;2.10;1.15;;;;;;;;;;5075263;28;20052;-67
2021/05/27 01:01:32;;;;;;;2.67;1.52;;;;;;;;;;5075450;28;20056;-68
2021/05/27 01:03:59;;;;;;;2.95;1.52;;;;;;;;;;5074953;28;20045;-67
2021/05/27 01:06:25;;;;;;;2.63;1.20;;;;;;;;;;5074884;28;20396;-68
2021/05/27 01:08:52;;;;;;;3.42;1.50;;;;;;;;;;5074309;28;20056;-68
2021/05/27 01:11:18;;;;;;;2.53;1.50;;;;;;;;;;5075227;28;20048;-68
2021/05/27 01:13:45;;;;;;;3.30;1.63;;;;;;;;;;5074937;28;20052;-68
2021/05/27 01:16:14;;;;;;;2.55;1.25;;;;;;;;;;5074772;28;20056;-68
2021/05/27 01:18:40;;;;;;;2.47;1.30;;;;;;;;;;5074698;28;20053;-68
2021/05/27 01:21:06;;;;;;;3.13;1.50;;;;;;;;;;5074229;28;20182;-68
2021/05/27 01:23:33;;;;;;;3.22;1.38;;;;;;;;;;5074831;28;20385;-68
2021/05/27 01:26:00;;;;;;;2.50;1.63;;;;;;;;;;5074807;28;20051;-68
2021/05/27 01:28:28;;;;;;;1.67;0.98;;;;;;;;;;5073722;28;20464;-68
2021/05/27 01:30:55;;;;;;;3.65;1.33;;;;;;;;;;5059856;28;20531;-68
2021/05/27 01:33:20;;;;;;;2.33;1.67;;;;;;;;;;5054529;28;20057;-68
2021/05/27 01:35:47;;;;;;;2.03;1.17;;;;;;;;;;5071659;28;20048;-68
2021/05/27 01:38:14;;;;;;;2.80;1.60;;;;;;;;;;5074119;28;20569;-68
2021/05/27 01:40:42;;;;;;;3.45;1.48;;;;;;;;;;5073441;28;20048;-68
2021/05/27 01:43:08;;;;;;;2.25;1.40;;;;;;;;;;5074319;28;20419;-68
2021/05/27 01:45:35;;;;;;;3.70;1.50;;;;;;;;;;5074208;28;20046;-68
2021/05/27 01:48:01;;;;;;;3.80;1.42;;;;;;;;;;5074440;28;20530;-68
2021/05/27 01:50:27;;;;;;;4.88;2.03;;;;;;;;;;5071529;28;20044;-68
2021/05/27 01:52:56;;;;;;;1.95;1.40;;;;;;;;;;5065280;28;20048;-68
2021/05/27 01:55:22;;;;;;;3.42;1.70;;;;;;;;;;5055458;28;20049;-68
2021/05/27 01:57:49;;;;;;;3.35;1.40;;;;;;;;;;5053887;28;20511;-68
2021/05/27 02:00:15;;;;;;;4.88;1.48;;;;;;;;;;5054166;28;20045;-68
2021/05/27 02:02:41;;;;;;;2.63;1.20;;;;;;;;;;5062492;28;20052;-68
2021/05/27 02:05:08;;;;;;;2.20;1.42;;;;;;;;;;5070175;28;20040;-68
2021/05/27 02:07:34;;;;;;;3.10;1.50;;;;;;;;;;5073757;28;20621;-69
2021/05/27 02:10:00;;;;;;;2.65;1.50;;;;;;;;;;5074114;28;20101;-68
2021/05/27 02:12:26;;;;;;;3.97;1.90;;;;;;;;;;5074159;28;20052;-68
2021/05/27 02:14:53;;;;;;;2.20;1.35;;;;;;;;;;5073748;28;20060;-68
2021/05/27 02:17:19;;;;;;;3.45;1.10;;;;;;;;;;5073817;28;20512;-68
2021/05/27 02:19:45;;;;;;;2.60;1.25;;;;;;;;;;5073678;28;20052;-68
2021/05/27 02:22:10;;;;;;;2.05;1.23;;;;;;;;;;5073479;28;20056;-68
2021/05/27 02:24:36;;;;;;;3.85;1.65;;;;;;;;;;5073668;28;20052;-68
2021/05/27 02:27:03;;;;;;;1.90;1.33;;;;;;;;;;5073670;28;20052;-68
2021/05/27 02:29:29;;;;;;;2.05;1.30;;;;;;;;;;5073080;28;20052;-68
2021/05/27 02:31:55;;;;;;;2.33;1.33;;;;;;;;;;5072587;28;20465;-68
2021/05/27 02:34:21;;;;;;;1.42;0.98;;;;;;;;;;5073210;28;20493;-68
2021/05/27 02:36:47;;;;;;;3.15;1.10;;;;;;;;;;5072865;28;20052;-68
2021/05/27 02:39:13;;;;;;;2.97;1.40;;;;;;;;;;5072822;28;20087;-68
2021/05/27 02:41:39;;;;;;;2.13;1.25;;;;;;;;;;5073278;28;20070;-68
2021/05/27 02:44:06;;;;;;;2.25;1.17;;;;;;;;;;5073033;28;20053;-68
2021/05/27 02:46:32;;;;;;;2.47;1.30;;;;;;;;;;5072964;28;20040;-68
2021/05/27 02:48:59;;;;;;;1.50;1.13;;;;;;;;;;5073255;28;20075;-68
2021/05/27 02:51:25;;;;;;;2.75;1.38;;;;;;;;;;5070697;28;20107;-68
2021/05/27 02:53:51;;;;;;;3.22;1.20;;;;;;;;;;5064125;28;20480;-68
2021/05/27 02:56:17;;;;;;;2.28;1.40;;;;;;;;;;5054918;28;20133;-68
2021/05/27 02:58:43;;;;;;;4.68;1.60;;;;;;;;;;5053030;28;20072;-68
2021/05/27 03:01:10;;;;;;;4.82;1.30;;;;;;;;;;5052869;28;20051;-68
2021/05/27 03:03:36;;;;;;;1.92;1.10;;;;;;;;;;5053994;28;20270;-68
2021/05/27 03:06:03;;;;;;;3.08;1.42;;;;;;;;;;5072551;28;20052;-68
2021/05/27 03:08:29;;;;;;;1.83;1.33;;;;;;;;;;5072581;28;20051;-68
2021/05/27 03:10:56;;;;;;;2.50;1.63;;;;;;;;;;5072923;28;20496;-68
2021/05/27 03:13:22;;;;;;;3.20;1.30;;;;;;;;;;5072316;28;20059;-68
2021/05/27 03:15:48;;;;;;;2.80;1.15;;;;;;;;;;5072824;28;20591;-68
2021/05/27 03:18:14;;;;;;;1.65;1.10;;;;;;;;;;5072798;28;20055;-68
2021/05/27 03:20:40;;;;;;;2.38;1.23;;;;;;;;;;5072555;28;20052;-68
2021/05/27 03:23:07;;;;;;;7.45;1.83;;;;;;;;;;5072471;28;20055;-68
2021/05/27 03:25:33;;;;;;;3.90;1.65;;;;;;;;;;5072168;28;20102;-68
2021/05/27 03:28:00;;;;;;;4.55;1.38;;;;;;;;;;5072552;28;20049;-68
2021/05/27 03:30:26;;;;;;;6.05;1.67;;;;;;;;;;5072511;28;20049;-68
2021/05/27 03:32:52;;;;;;;3.13;1.60;;;;;;;;;;5072442;28;20547;-68
2021/05/27 03:35:18;;;;;;;3.67;1.58;;;;;;;;;;5072209;28;20052;-69
2021/05/27 03:37:44;;;;;;;2.45;1.30;;;;;;;;;;5072025;28;20052;-68
2021/05/27 03:40:13;;;;;;;4.00;2.55;;;;;;;;;;5071843;28;20052;-68
2021/05/27 03:42:45;;;;;;;3.13;1.40;;;;;;;;;;5072070;28;20397;-68
2021/05/27 03:45:12;;;;;;;5.93;2.20;;;;;;;;;;5072280;28;20469;-68
2021/05/27 03:47:39;;;;;;;3.72;1.67;;;;;;;;;;5072257;28;20477;-68
2021/05/27 03:50:07;;;;;;;4.60;1.50;;;;;;;;;;5072079;28;20106;-68
2021/05/27 03:52:33;;;;;;;3.55;1.63;;;;;;;;;;5069345;28;20052;-69
2021/05/27 03:54:59;;;;;;;3.63;2.10;;;;;;;;;;5064498;28;20067;-68
2021/05/27 03:57:26;;;;;;;4.65;1.60;;;;;;;;;;5071246;28;20135;-69
2021/05/27 04:02:41;;;;;;;4.55;1.80;;;;;;;;;;5061777;28;20136;-68
2021/05/27 04:07:51;;;;;;;2.25;1.20;;;;;;;;;;5067608;28;20066;-68
2021/05/27 04:10:17;;;;;;;5.72;1.77;;;;;;;;;;5071929;28;20052;-68
2021/05/27 04:12:45;;;;;;;3.53;1.75;;;;;;;;;;5072304;28;20052;-68
2021/05/27 04:15:22;;;;;;;4.47;1.60;;;;;;;;;;5071968;28;20075;-68
2021/05/27 04:17:59;;;;;;;3.30;1.58;;;;;;;;;;5071817;28;20059;-68
2021/05/27 04:20:27;;;;;;;2.60;1.40;;;;;;;;;;5072078;28;20136;-69
2021/05/27 04:22:53;;;;;;;2.75;1.50;;;;;;;;;;5071859;28;20109;-68
2021/05/27 04:25:21;;;;;;;3.95;1.70;;;;;;;;;;5072014;28;20051;-68
2021/05/27 04:27:48;;;;;;;2.05;1.42;;;;;;;;;;5071533;28;20048;-68
2021/05/27 04:30:15;;;;;;;3.10;1.83;;;;;;;;;;5071988;28;20060;-68
2021/05/27 04:32:59;;;;;;;3.85;2.10;;;;;;;;;;5071252;28;20048;-68
2021/05/27 04:35:31;;;;;;;4.55;2.75;;;;;;;;;;5070640;28;20083;-68
2021/05/27 04:38:00;;;;;;;4.35;1.80;;;;;;;;;;5071227;28;20062;-68
2021/05/27 04:40:26;;;;;;;4.45;2.25;;;;;;;;;;5071790;28;20143;-68
2021/05/27 04:42:53;;;;;;;18.27;3.30;;;;;;;;;;5071177;28;20045;-68
2021/05/27 04:45:19;;;;;;;4.25;1.58;;;;;;;;;;5071921;28;20054;-68
2021/05/27 04:47:45;;;;;;;2.80;1.58;;;;;;;;;;5071849;28;20044;-68
2021/05/27 04:50:12;;;;;;;4.22;2.58;;;;;;;;;;5071594;28;20044;-68
2021/05/27 04:52:39;;;;;;;3.90;2.13;;;;;;;;;;5070232;28;20041;-68
2021/05/27 04:55:06;;;;;;;4.57;2.00;;;;;;;;;;5062649;28;20056;-68
2021/05/27 04:57:32;;;;;;;2.70;1.60;;;;;;;;;;5063244;28;20049;-68
2021/05/27 04:59:59;;;;;;;2.90;1.85;;;;;;;;;;5055393;28;20041;-68
2021/05/27 05:02:25;;;;;;;3.42;1.80;;;;;;;;;;5055099;28;20107;-68
2021/05/27 05:04:51;;;;;;;2.33;1.58;;;;;;;;;;5055223;28;20045;-68
2021/05/27 05:07:17;;;;;;;3.65;2.00;;;;;;;;;;5071635;28;20048;-68
2021/05/27 05:09:43;;;;;;;6.65;1.77;;;;;;;;;;5074636;28;20041;-68
2021/05/27 05:12:10;;;;;;;3.95;1.90;;;;;;;;;;5075262;28;20505;-68
2021/05/27 05:14:36;;;;;;;3.15;1.70;;;;;;;;;;5074347;28;20063;-68
2021/05/27 05:17:03;;;;;;;5.60;2.05;;;;;;;;;;5074983;28;20049;-68
2021/05/27 05:19:28;;;;;;;4.38;1.80;;;;;;;;;;5074760;28;20049;-68
2021/05/27 05:21:56;;;;;;;15.38;2.30;;;;;;;;;;5074862;28;20117;-68
2021/05/27 05:24:22;;;;;;;2.60;1.67;;;;;;;;;;5074720;28;20143;-68
2021/05/27 05:26:48;;;;;;;5.05;2.15;;;;;;;;;;5074139;28;20120;-68
2021/05/27 05:29:14;;;;;;;1.92;1.65;;;;;;;;;;5074624;28;20048;-68
2021/05/27 05:31:40;;;;;;;3.92;1.95;;;;;;;;;;5074260;28;20044;-69
2021/05/27 05:34:07;;;;;;;2.67;1.77;;;;;;;;;;5069882;28;20075;-68
2021/05/27 05:36:32;;;;;;;5.30;2.13;;;;;;;;;;5076048;28;20043;-68
2021/05/27 05:38:58;;;;;;;5.65;2.05;;;;;;;;;;5072122;28;20415;-68
2021/05/27 05:41:24;;;;;;;4.50;2.33;;;;;;;;;;5075343;28;20124;-68
2021/05/27 05:43:50;;;;;;;5.70;1.90;;;;;;;;;;5074707;28;20045;-68
2021/05/27 05:46:16;;;;;;;3.85;1.80;;;;;;;;;;5074613;28;20052;-68
2021/05/27 05:48:43;;;;;;;5.68;1.65;;;;;;;;;;5073895;28;20040;-68
2021/05/27 05:51:09;;;;;;;2.97;1.70;;;;;;;;;;5073545;28;20049;-68
2021/05/27 05:53:36;;;;;;;4.43;1.83;;;;;;;;;;5066850;28;20044;-68
2021/05/27 05:56:03;;;;;;;4.00;1.58;;;;;;;;;;5067519;28;20076;-68
2021/05/27 05:58:30;;;;;;;2.90;1.48;;;;;;;;;;5071494;28;20053;-68
2021/05/27 06:00:56;;;;;;;2.72;1.58;;;;;;;;;;5073665;28;20037;-68
2021/05/27 06:03:22;;;;;;;3.45;1.63;;;;;;;;;;5073884;28;20045;-68
2021/05/27 06:05:48;;;;;;;5.35;1.92;;;;;;;;;;5068983;28;20041;-68
2021/05/27 06:08:15;;;;;;;2.58;1.58;;;;;;;;;;5072319;28;20055;-68
2021/05/27 06:10:41;;;;;;;5.03;2.10;;;;;;;;;;5070734;28;20048;-68
2021/05/27 06:13:10;;;;;;;3.28;1.90;;;;;;;;;;5073063;28;20059;-67
2021/05/27 06:15:37;;;;;;;3.83;2.00;;;;;;;;;;5073082;28;20041;-67
2021/05/27 06:18:03;;;;;;;4.90;2.20;;;;;;;;;;5072899;28;20064;-67
2021/05/27 06:20:30;;;;;;;2.78;1.70;;;;;;;;;;5073036;28;20037;-68
2021/05/27 06:22:56;;;;;;;3.90;1.50;;;;;;;;;;5072912;28;20125;-68
2021/05/27 06:25:24;;;;;;;3.47;1.70;;;;;;;;;;5072322;28;20108;-67
2021/05/27 06:27:50;;;;;;;3.72;1.50;;;;;;;;;;5070866;28;20045;-67
2021/05/27 06:30:17;;;;;;;3.25;1.80;;;;;;;;;;5068110;28;20438;-67
2021/05/27 06:32:43;;;;;;;4.35;1.65;;;;;;;;;;5061292;28;20056;-67
2021/05/27 06:35:11;;;;;;;3.83;1.65;;;;;;;;;;5067988;28;20401;-68
2021/05/27 06:37:39;;;;;;;3.45;1.60;;;;;;;;;;5070880;28;20055;-67
2021/05/27 06:40:07;;;;;;;6.28;1.92;;;;;;;;;;5061776;28;20057;-68
2021/05/27 06:42:34;;;;;;;3.03;2.22;;;;;;;;;;5068518;28;20056;-68
2021/05/27 06:45:00;;;;;;;2.65;1.75;;;;;;;;;;5067949;28;20052;-67
2021/05/27 06:47:26;;;;;;;2.35;1.60;;;;;;;;;;5070122;28;20540;-67
2021/05/27 06:49:52;;;;;;;4.47;1.70;;;;;;;;;;5072889;28;20049;-68
2021/05/27 06:52:18;;;;;;;2.42;1.52;;;;;;;;;;5063912;28;20051;-67
2021/05/27 06:54:44;;;;;;;2.00;1.33;;;;;;;;;;5070456;28;20127;-68
2021/05/27 06:57:10;;;;;;;3.30;1.50;;;;;;;;;;5067008;28;20044;-68
2021/05/27 06:59:37;;;;;;;4.30;1.75;;;;;;;;;;5065944;28;20103;-68
2021/05/27 07:02:03;;;;;;;7.88;1.70;;;;;;;;;;5068555;28;20056;-67
2021/05/27 07:04:29;;;;;;;3.75;1.88;;;;;;;;;;5067642;28;20468;-67
2021/05/27 07:06:55;;;;;;;10.50;2.00;;;;;;;;;;5069812;28;20057;-67
2021/05/27 07:09:22;;;;;;;3.75;2.17;;;;;;;;;;5064622;28;20052;-67
2021/05/27 07:11:48;;;;;;;6.32;2.00;;;;;;;;;;5070210;28;20044;-68
2021/05/27 07:14:14;;;;;;;3.47;1.75;;;;;;;;;;5064566;28;20052;-67
2021/05/27 07:16:41;;;;;;;2.63;1.80;;;;;;;;;;5057298;28;20037;-68
2021/05/27 07:19:07;;;;;;;3.70;1.90;;;;;;;;;;5062835;28;20403;-67
2021/05/27 07:21:33;;;;;;;4.10;1.90;;;;;;;;;;5069240;28;20044;-67
2021/05/27 07:23:59;;;;;;;5.43;2.10;;;;;;;;;;5066770;28;20044;-68
2021/05/27 07:26:25;;;;;;;5.85;1.65;;;;;;;;;;5061687;28;20040;-67
2021/05/27 07:28:51;;;;;;;4.35;1.83;;;;;;;;;;5067037;28;20053;-67
2021/05/27 07:31:17;;;;;;;3.83;1.60;;;;;;;;;;5070631;28;20400;-67
2021/05/27 07:33:44;;;;;;;2.33;1.45;;;;;;;;;;5067363;28;20051;-66
2021/05/27 07:36:10;;;;;;;4.35;1.88;;;;;;;;;;5059374;28;20487;-66
2021/05/27 07:38:36;;;;;;;5.22;1.80;;;;;;;;;;5075504;28;20062;-67
2021/05/27 07:41:04;;;;;;;4.60;1.70;;;;;;;;;;5067385;28;20052;-67
2021/05/27 07:43:30;;;;;;;3.25;1.42;;;;;;;;;;5068304;28;20399;-67
2021/05/27 07:45:56;;;;;;;2.78;1.38;;;;;;;;;;5068332;28;20045;-67
2021/05/27 07:48:22;;;;;;;3.97;1.60;;;;;;;;;;5068014;28;20447;-67
2021/05/27 07:50:49;;;;;;;2.50;1.20;;;;;;;;;;5063565;28;20155;-67
2021/05/27 07:53:17;;;;;;;3.85;1.60;;;;;;;;;;5066298;28;20044;-67
2021/05/27 07:55:43;;;;;;;5.32;1.75;;;;;;;;;;5065838;28;20485;-68
2021/05/27 07:58:09;;;;;;;2.95;1.70;;;;;;;;;;5065799;28;20126;-67
2021/05/27 08:00:35;;;;;;;5.47;2.15;;;;;;;;;;5064081;28;20048;-68
2021/05/27 08:03:01;;;;;;;4.00;1.50;;;;;;;;;;5069199;28;20083;-67
2021/05/27 08:05:27;;;;;;;2.22;1.23;;;;;;;;;;5065438;28;20487;-67
2021/05/27 08:07:54;;;;;;;3.67;1.35;;;;;;;;;;5069062;28;20045;-67
2021/05/27 08:10:20;;;;;;;2.30;1.30;;;;;;;;;;5065486;28;20055;-67
2021/05/27 08:12:47;;;;;;;2.50;1.33;;;;;;;;;;5069784;28;20040;-68
2021/05/27 08:15:13;;;;;;;2.45;1.40;;;;;;;;;;5068514;28;20044;-67
2021/05/27 08:17:39;;;;;;;2.70;1.55;;;;;;;;;;5069272;28;20056;-68
2021/05/27 08:20:07;;;;;;;2.63;1.40;;;;;;;;;;5069373;28;20060;-67
2021/05/27 08:22:33;;;;;;;2.75;1.63;;;;;;;;;;5068528;28;20644;-67
2021/05/27 08:25:02;;;;;;;2.63;1.10;;;;;;;;;;5065016;28;20052;-67
2021/05/27 08:27:28;;;;;;;3.00;1.30;;;;;;;;;;5068178;28;20251;-67
2021/05/27 08:29:54;;;;;;;3.60;1.33;;;;;;;;;;5063671;28;20044;-68
2021/05/27 08:32:20;;;;;;;1.85;1.02;;;;;;;;;;5071676;28;20514;-67
2021/05/27 08:34:46;;;;;;;2.45;1.40;;;;;;;;;;5073652;28;20060;-67
2021/05/27 08:37:12;;;;;;;5.20;1.60;;;;;;;;;;5070992;28;20098;-67
2021/05/27 08:39:38;;;;;;;2.78;1.50;;;;;;;;;;5072742;28;20082;-67
2021/05/27 08:42:05;;;;;;;3.00;1.42;;;;;;;;;;5072589;28;20083;-67
2021/05/27 08:44:33;;;;;;;2.67;1.55;;;;;;;;;;5072130;28;20476;-67
2021/05/27 08:47:00;;;;;;;2.28;1.35;;;;;;;;;;5071239;28;20041;-67
2021/05/27 08:49:26;;;;;;;2.03;1.10;;;;;;;;;;5072152;28;20102;-67
2021/05/27 08:51:52;;;;;;;2.13;1.20;;;;;;;;;;5071944;28;20044;-67
2021/05/27 08:54:18;;;;;;;1.67;1.17;;;;;;;;;;5072459;28;20413;-67
2021/05/27 08:56:44;;;;;;;1.08;0.95;;;;;;;;;;5069946;28;20127;-67
2021/05/27 08:59:11;;;;;;;3.00;1.58;;;;;;;;;;5069220;28;20095;-67
2021/05/27 09:02:07;;;;;;;3.35;1.27;;;;;;;;;;5070713;28;20052;-67
2021/05/27 09:04:33;;;;;;;3.60;1.23;;;;;;;;;;5070928;28;20052;-67
2021/05/27 09:06:59;;;;;;;3.78;1.27;;;;;;;;;;5070010;28;20044;-68
2021/05/27 09:09:25;;;;;;;2.65;1.40;;;;;;;;;;5064468;28;20049;-67
2021/05/27 09:11:51;;;;;;;3.20;1.52;;;;;;;;;;5055407;28;20560;-67
2021/05/27 09:14:19;;;;;;;2.50;1.52;;;;;;;;;;5064283;28;20102;-67
2021/05/27 09:16:55;;;;;;;3.78;1.30;;;;;;;;;;5065668;28;20533;-67
2021/05/27 09:19:22;;;;;;;3.35;1.42;;;;;;;;;;5053126;28;20049;-67
2021/05/27 09:21:48;;;;;;;3.75;1.80;;;;;;;;;;5065164;28;20124;-68
2021/05/27 09:24:14;;;;;;;2.40;1.15;;;;;;;;;;5065392;28;20400;-67
2021/05/27 09:26:50;;;;;;;2.17;1.15;;;;;;;;;;5064230;28;20557;-68
2021/05/27 09:29:16;;;;;;;3.35;1.20;;;;;;;;;;5059496;28;20604;-67
2021/05/27 09:31:57;;;;;;;4.55;1.20;;;;;;;;;;5056715;28;20052;-67
2021/05/27 09:34:41;;;;;;;3.25;0.90;;;;;;;;;;5061393;28;20504;-67
2021/05/27 09:37:18;;;;;;;4.80;1.05;;;;;;;;;;5065223;28;20127;-67
2021/05/27 09:39:45;;;;;;;2.65;0.90;;;;;;;;;;5071652;28;20102;-67
2021/05/27 09:42:11;;;;;;;4.05;1.40;;;;;;;;;;5063214;28;20049;-67
2021/05/27 09:44:37;;;;;;;2.22;1.48;;;;;;;;;;5053132;28;20080;-67
2021/05/27 09:47:04;;;;;;;3.47;1.20;;;;;;;;;;5072073;28;20110;-67
2021/05/27 09:49:33;;;;;;;2.83;1.25;;;;;;;;;;5072249;28;20076;-67
2021/05/27 09:52:13;;;;;;;8.90;1.73;;;;;;;;;;5071237;28;20056;-67
2021/05/27 09:54:50;;;;;;;3.67;1.23;;;;;;;;;;5070789;28;20040;-67
2021/05/27 09:57:20;;;;;;;6.13;1.38;;;;;;;;;;5069820;28;20062;-67
2021/05/27 09:59:46;;;;;;;7.57;1.60;;;;;;;;;;5067189;28;20135;-68
2021/05/27 10:02:14;;;;;;;4.65;1.27;;;;;;;;;;5074274;28;20555;-67
2021/05/27 10:05:03;;;;;;;2.97;1.08;;;;;;;;;;5068750;28;20051;-66
2021/05/27 10:07:34;;;;;;;4.13;1.23;;;;;;;;;;5066701;28;20041;-67
2021/05/27 10:10:00;;;;;;;2.38;1.23;;;;;;;;;;5063814;28;20480;-67
2021/05/27 10:12:27;;;;;;;2.75;1.58;;;;;;;;;;5072481;28;20377;-67
2021/05/27 10:14:53;;;;;;;4.03;1.67;;;;;;;;;;5066110;28;20044;-67
2021/05/27 10:17:21;;;;;;;5.47;1.73;;;;;;;;;;5054647;28;20049;-66
2021/05/27 10:19:47;;;;;;;6.07;1.25;;;;;;;;;;5067221;28;20045;-66
2021/05/27 10:22:14;;;;;;;4.40;1.13;;;;;;;;;;5069387;28;20051;-66
2021/05/27 10:24:40;;;;;;;3.20;1.38;;;;;;;;;;5068395;28;20058;-66
2021/05/27 10:27:07;;;;;;;8.93;1.48;;;;;;;;;;5051823;28;20062;-66
2021/05/27 10:29:33;;;;;;;2.05;1.00;;;;;;;;;;5067932;28;20055;-67
2021/05/27 10:32:00;;;;;;;4.45;1.40;;;;;;;;;;5061426;28;20045;-67
2021/05/27 10:34:45;;;;;;;3.78;1.20;;;;;;;;;;5067175;28;20049;-67
2021/05/27 10:37:11;;;;;;;7.05;1.38;;;;;;;;;;5057930;28;20140;-67
2021/05/27 10:39:37;;;;;;;8.98;1.23;;;;;;;;;;5051183;28;20313;-67
2021/05/27 10:42:03;;;;;;;6.95;1.17;;;;;;;;;;5060010;28;20101;-67
2021/05/27 10:44:29;;;;;;;5.03;1.30;;;;;;;;;;5060018;28;20504;-67
2021/05/27 10:47:07;;;;;;;2.08;0.90;;;;;;;;;;5061612;28;20045;-66
2021/05/27 10:49:57;;;;;;;3.30;1.00;;;;;;;;;;5064128;28;20048;-67
2021/05/27 10:52:41;;;;;;;6.60;1.10;;;;;;;;;;5071204;28;20068;-67
2021/05/27 10:55:53;;;;;;;3.90;0.90;;;;;;;;;;5061511;28;20049;-67
2021/05/27 10:58:20;;;;;;;3.38;0.82;;;;;;;;;;5057133;28;20051;-67
2021/05/27 11:00:50;;;;;;;3.65;1.15;;;;;;;;;;5064486;28;20048;-67
2021/05/27 11:03:47;;;;;;;1.25;0.80;;;;;;;;;;5062040;28;20118;-66
2021/05/27 11:06:25;;;;;;;6.00;0.80;;;;;;;;;;5066855;28;20432;-67
2021/05/27 11:09:29;;;;;;;2.55;0.90;;;;;;;;;;5066650;28;20600;-67
2021/05/27 11:11:56;;;;;;;2.20;0.75;;;;;;;;;;5069685;28;20048;-67
2021/05/27 11:14:24;;;;;;;1.23;0.70;;;;;;;;;;5068431;28;20040;-67
2021/05/27 11:17:15;;;;;;;2.30;1.10;;;;;;;;;;5069344;28;20051;-66
2021/05/27 11:19:42;;;;;;;1.05;0.70;;;;;;;;;;5063610;28;20583;-67
2021/05/27 11:22:43;;;;;;;1.65;0.90;;;;;;;;;;5066064;28;20060;-67
2021/05/27 11:25:27;;;;;;;7.38;1.10;;;;;;;;;;5067810;28;20095;-67
2021/05/27 11:27:55;;;;;;;2.17;0.90;;;;;;;;;;5068547;28;20531;-67
2021/05/27 11:30:23;;;;;;;1.77;0.80;;;;;;;;;;5066152;28;20123;-67
2021/05/27 11:32:51;;;;;;;1.55;0.85;;;;;;;;;;5062539;28;20447;-67
2021/05/27 11:35:18;;;;;;;3.25;1.13;;;;;;;;;;5063199;28;20409;-67
2021/05/27 11:37:46;;;;;;;2.55;0.90;;;;;;;;;;5065287;28;20609;-67
2021/05/27 11:40:14;;;;;;;1.95;1.00;;;;;;;;;;5067658;28;20045;-66
2021/05/27 11:42:41;;;;;;;1.90;1.10;;;;;;;;;;5064114;28;20483;-67
2021/05/27 11:45:09;;;;;;;3.28;1.00;;;;;;;;;;5065668;28;20500;-67
2021/05/27 11:47:35;;;;;;;1.85;0.70;;;;;;;;;;5068046;28;20048;-67
2021/05/27 11:50:04;;;;;;;1.75;0.88;;;;;;;;;;5061898;28;20111;-67
2021/05/27 11:52:30;;;;;;;2.83;1.00;;;;;;;;;;5056557;28;20040;-67
2021/05/27 11:54:57;;;;;;;1.52;0.80;;;;;;;;;;5064674;28;20087;-67
2021/05/27 11:57:41;;;;;;;1.20;0.82;;;;;;;;;;5068903;28;20040;-66
2021/05/27 12:00:09;;;;;;;2.83;0.90;;;;;;;;;;5060193;28;20075;-66
2021/05/27 12:02:43;;;;;;;1.77;0.85;;;;;;;;;;5067418;28;20811;-66
2021/05/27 12:05:23;;;;;;;1.90;0.70;;;;;;;;;;5071073;28;20066;-71
2021/05/27 12:08:07;;;;;;;7.72;1.48;;;;;;;;;;5070985;28;20037;-67
2021/05/27 12:10:36;;;;;;;2.30;0.85;;;;;;;;;;5073366;28;20052;-67
2021/05/27 12:13:04;;;;;;;1.95;0.95;;;;;;;;;;5072485;28;20599;-66
2021/05/27 12:15:31;;;;;;;2.13;0.90;;;;;;;;;;5071238;28;20051;-67
2021/05/27 12:17:58;;;;;;;2.20;0.90;;;;;;;;;;5066523;28;20555;-66
2021/05/27 12:20:29;;;;;;;2.25;1.00;;;;;;;;;;5072928;28;20075;-67
2021/05/27 12:22:57;;;;;;;3.67;1.00;;;;;;;;;;5070595;28;20465;-66
2021/05/27 12:25:25;;;;;;;2.55;1.10;;;;;;;;;;5072069;28;20127;-67
2021/05/27 12:27:54;;;;;;;1.13;0.88;;;;;;;;;;5070847;28;20494;-66
2021/05/27 12:30:22;;;;;;;3.00;1.08;;;;;;;;;;5073657;28;20055;-66
2021/05/27 12:32:50;;;;;;;2.10;1.02;;;;;;;;;;5070989;28;20056;-65
2021/05/27 12:35:19;;;;;;;1.38;0.85;;;;;;;;;;5071668;28;20401;-65
2021/05/27 12:37:48;;;;;;;1.92;1.00;;;;;;;;;;5072987;28;20045;-66
2021/05/27 12:40:22;;;;;;;2.33;0.95;;;;;;;;;;5069730;28;20152;-65
2021/05/27 12:42:48;;;;;;;1.90;0.85;;;;;;;;;;5070511;28;20052;-65
2021/05/27 12:45:33;;;;;;;2.30;0.95;;;;;;;;;;5070367;28;20044;-65
2021/05/27 12:48:09;;;;;;;1.80;0.98;;;;;;;;;;5072872;28;20484;-65
2021/05/27 12:50:36;;;;;;;2.38;0.75;;;;;;;;;;5064129;28;20052;-65
2021/05/27 12:53:03;;;;;;;3.72;1.02;;;;;;;;;;5069093;28;20139;-66
2021/05/27 12:55:32;;;;;;;1.23;0.75;;;;;;;;;;5069146;28;20063;-66
2021/05/27 12:57:59;;;;;;;4.80;1.00;;;;;;;;;;5061868;28;20471;-67
2021/05/27 13:00:27;;;;;;;2.05;1.17;;;;;;;;;;5059930;28;20044;-65
2021/05/27 13:03:01;;;;;;;2.05;0.90;;;;;;;;;;5068279;28;20171;-65
2021/05/27 13:05:28;;;;;;;2.50;0.90;;;;;;;;;;5064173;28;20048;-66
2021/05/27 13:07:55;;;;;;;1.88;0.82;;;;;;;;;;5068613;28;20037;-66
2021/05/27 13:10:32;;;;;;;2.20;1.25;;;;;;;;;;5066053;28;20445;-68
2021/05/27 13:12:59;;;;;;;2.00;0.90;;;;;;;;;;5065003;28;20072;-66
2021/05/27 13:15:25;;;;;;;2.33;0.73;;;;;;;;;;5072854;28;20542;-68
2021/05/27 13:18:04;;;;;;;3.42;1.35;;;;;;;;;;5066642;28;20048;-67
2021/05/27 13:20:30;;;;;;;7.35;1.10;;;;;;;;;;5069160;28;20057;-68
2021/05/27 13:22:56;;;;;;;1.83;1.30;;;;;;;;;;5070186;28;20053;-67
2021/05/27 13:25:29;;;;;;;3.58;0.90;;;;;;;;;;5065322;28;20047;-66
2021/05/27 13:27:57;;;;;;;2.30;0.80;;;;;;;;;;5070182;28;21558;-67
2021/05/27 13:30:28;;;;;;;1.90;0.90;;;;;;;;;;5067774;28;20091;-67
2021/05/27 13:33:03;;;;;;;2.22;1.20;;;;;;;;;;5068828;28;20460;-68
2021/05/27 13:35:29;;;;;;;2.42;1.00;;;;;;;;;;5069331;28;20054;-68
2021/05/27 13:37:58;;;;;;;3.35;1.10;;;;;;;;;;5069186;28;20046;-67
2021/05/27 13:40:26;;;;;;;1.65;1.17;;;;;;;;;;5069579;28;20060;-66
2021/05/27 13:42:53;;;;;;;1.30;0.90;;;;;;;;;;5069824;28;20059;-65
2021/05/27 13:45:20;;;;;;;1.13;0.82;;;;;;;;;;5070053;28;20472;-66
2021/05/27 13:47:48;;;;;;;2.33;0.95;;;;;;;;;;5070444;28;20048;-65
2021/05/27 13:50:16;;;;;;;2.90;0.90;;;;;;;;;;5065368;28;20045;-66
2021/05/27 13:52:44;;;;;;;2.88;1.10;;;;;;;;;;5063922;28;20414;-67
2021/05/27 13:55:14;;;;;;;1.95;0.90;;;;;;;;;;5071374;28;20076;-66
2021/05/27 13:57:41;;;;;;;1.33;0.90;;;;;;;;;;5071187;28;20120;-66
2021/05/27 14:00:08;;;;;;;2.60;1.00;;;;;;;;;;5072693;28;20089;-66
2021/05/27 14:02:34;;;;;;;1.58;0.93;;;;;;;;;;5069831;28;20070;-68
2021/05/27 14:05:00;;;;;;;2.88;0.90;;;;;;;;;;5062778;28;20143;-67
2021/05/27 14:07:27;;;;;;;2.55;0.70;;;;;;;;;;5070505;28;20045;-67
2021/05/27 14:09:54;;;;;;;2.83;0.93;;;;;;;;;;5071569;28;20051;-67
2021/05/27 14:12:20;;;;;;;3.00;1.30;;;;;;;;;;5071885;28;20044;-66
2021/05/27 14:14:46;;;;;;;2.63;1.65;;;;;;;;;;5069158;28;20056;-67
2021/05/27 14:17:12;;;;;;;2.20;1.20;;;;;;;;;;5065927;28;20045;-67
2021/05/27 14:19:38;;;;;;;3.17;1.30;;;;;;;;;;5067547;28;20052;-67
2021/05/27 14:22:04;;;;;;;2.97;1.35;;;;;;;;;;5072224;28;20396;-67
2021/05/27 14:24:34;;;;;;;4.88;1.60;;;;;;;;;;5070278;28;20044;-67
2021/05/27 14:27:00;;;;;;;3.88;1.35;;;;;;;;;;5069808;28;20056;-67
2021/05/27 14:29:26;;;;;;;4.68;1.60;;;;;;;;;;5070964;28;20076;-67
2021/05/27 14:31:54;;;;;;;2.33;1.27;;;;;;;;;;5068609;28;20048;-66
2021/05/27 14:34:20;;;;;;;1.60;1.20;;;;;;;;;;5070966;28;20048;-66
2021/05/27 14:36:46;;;;;;;3.53;1.50;;;;;;;;;;5067421;28;20044;-67
2021/05/27 14:39:13;;;;;;;2.40;1.58;;;;;;;;;;5068486;28;20056;-67
2021/05/27 14:41:40;;;;;;;1.77;1.23;;;;;;;;;;5050764;28;20057;-65
2021/05/27 14:44:06;;;;;;;2.58;1.45;;;;;;;;;;5062084;28;20056;-66
2021/05/27 14:46:32;;;;;;;3.15;1.20;;;;;;;;;;5072005;28;20048;-66
2021/05/27 14:48:58;;;;;;;3.58;1.30;;;;;;;;;;5072308;28;20102;-66
2021/05/27 14:51:24;;;;;;;4.60;1.40;;;;;;;;;;5068829;28;20596;-65
2021/05/27 14:53:51;;;;;;;4.15;1.45;;;;;;;;;;5070606;28;20048;-66